sensor_id;sensor_type;location;lat;lon;timestamp;P1;durP1;ratioP1;P2;durP2;ratioP2
840;SDS011;406;48.566;13.450;2023-03-26T00:00:39;7.00;;;4.10;;
840;SDS011;406;48.566;13.450;2023-03-26T00:03:13;6.70;;;4.87;;
840;SDS011;406;48.566;13.450;2023-03-26T00:05:42;5.47;;;3.73;;
840;SDS011;406;48.566;13.450;2023-03-26T00:08:11;4.90;;;3.63;;
840;SDS011;406;48.566;13.450;2023-03-26T00:10:38;4.13;;;3.43;;
840;SDS011;406;48.566;13.450;2023-03-26T00:13:06;6.80;;;4.30;;
840;SDS011;406;48.566;13.450;2023-03-26T00:15:33;4.70;;;3.93;;
840;SDS011;406;48.566;13.450;2023-03-26T00:18:00;5.10;;;4.20;;
840;SDS011;406;48.566;13.450;2023-03-26T00:20:28;6.13;;;3.70;;
840;SDS011;406;48.566;13.450;2023-03-26T00:22:58;4.50;;;4.03;;
840;SDS011;406;48.566;13.450;2023-03-26T00:25:29;5.03;;;3.83;;
840;SDS011;406;48.566;13.450;2023-03-26T00:27:57;5.33;;;3.93;;
840;SDS011;406;48.566;13.450;2023-03-26T00:30:23;4.97;;;3.70;;
840;SDS011;406;48.566;13.450;2023-03-26T00:32:50;4.70;;;3.30;;
840;SDS011;406;48.566;13.450;2023-03-26T00:35:19;6.27;;;3.90;;
840;SDS011;406;48.566;13.450;2023-03-26T00:37:47;5.47;;;3.30;;
840;SDS011;406;48.566;13.450;2023-03-26T00:40:17;3.43;;;2.70;;
840;SDS011;406;48.566;13.450;2023-03-26T00:42:43;4.73;;;2.80;;
840;SDS011;406;48.566;13.450;2023-03-26T00:45:10;4.70;;;2.83;;
840;SDS011;406;48.566;13.450;2023-03-26T00:47:37;7.37;;;4.00;;
840;SDS011;406;48.566;13.450;2023-03-26T00:50:05;3.33;;;2.00;;
840;SDS011;406;48.566;13.450;2023-03-26T00:52:41;2.43;;;1.70;;
840;SDS011;406;48.566;13.450;2023-03-26T00:55:09;3.40;;;1.73;;
840;SDS011;406;48.566;13.450;2023-03-26T00:57:35;3.40;;;2.63;;
840;SDS011;406;48.566;13.450;2023-03-26T01:00:06;2.17;;;1.67;;
840;SDS011;406;48.566;13.450;2023-03-26T01:02:36;3.30;;;1.43;;
840;SDS011;406;48.566;13.450;2023-03-26T01:05:25;5.40;;;1.87;;
840;SDS011;406;48.566;13.450;2023-03-26T01:08:03;10.20;;;3.00;;
840;SDS011;406;48.566;13.450;2023-03-26T01:10:44;1.77;;;1.37;;
840;SDS011;406;48.566;13.450;2023-03-26T01:13:17;4.40;;;1.20;;
840;SDS011;406;48.566;13.450;2023-03-26T01:15:48;1.50;;;1.33;;
840;SDS011;406;48.566;13.450;2023-03-26T01:18:17;2.90;;;1.83;;
840;SDS011;406;48.566;13.450;2023-03-26T01:20:48;2.20;;;1.27;;
840;SDS011;406;48.566;13.450;2023-03-26T01:23:21;2.50;;;1.37;;
840;SDS011;406;48.566;13.450;2023-03-26T01:26:00;2.60;;;1.30;;
840;SDS011;406;48.566;13.450;2023-03-26T01:28:32;2.00;;;1.00;;
840;SDS011;406;48.566;13.450;2023-03-26T01:31:10;2.23;;;0.90;;
840;SDS011;406;48.566;13.450;2023-03-26T01:33:48;1.53;;;0.90;;
840;SDS011;406;48.566;13.450;2023-03-26T01:36:25;2.43;;;1.10;;
840;SDS011;406;48.566;13.450;2023-03-26T01:39:09;4.13;;;1.50;;
840;SDS011;406;48.566;13.450;2023-03-26T01:42:09;2.30;;;1.40;;
840;SDS011;406;48.566;13.450;2023-03-26T01:44:38;2.30;;;0.93;;
840;SDS011;406;48.566;13.450;2023-03-26T01:47:11;1.50;;;0.80;;
840;SDS011;406;48.566;13.450;2023-03-26T01:49:37;2.53;;;0.90;;
840;SDS011;406;48.566;13.450;2023-03-26T01:52:05;3.30;;;1.17;;
840;SDS011;406;48.566;13.450;2023-03-26T01:54:37;1.93;;;0.80;;
840;SDS011;406;48.566;13.450;2023-03-26T01:57:25;2.83;;;1.20;;
840;SDS011;406;48.566;13.450;2023-03-26T02:00:03;1.97;;;0.80;;
840;SDS011;406;48.566;13.450;2023-03-26T02:03:00;2.70;;;1.20;;
840;SDS011;406;48.566;13.450;2023-03-26T02:05:56;3.53;;;0.93;;
840;SDS011;406;48.566;13.450;2023-03-26T02:08:31;3.70;;;1.30;;
840;SDS011;406;48.566;13.450;2023-03-26T02:11:04;2.10;;;1.00;;
840;SDS011;406;48.566;13.450;2023-03-26T02:13:38;1.40;;;0.80;;
840;SDS011;406;48.566;13.450;2023-03-26T02:16:07;3.13;;;0.90;;
840;SDS011;406;48.566;13.450;2023-03-26T02:18:35;1.93;;;0.93;;
840;SDS011;406;48.566;13.450;2023-03-26T02:21:02;1.37;;;0.93;;
840;SDS011;406;48.566;13.450;2023-03-26T02:23:47;1.57;;;1.10;;
840;SDS011;406;48.566;13.450;2023-03-26T02:26:17;4.00;;;1.07;;
840;SDS011;406;48.566;13.450;2023-03-26T02:29:02;1.30;;;0.97;;
840;SDS011;406;48.566;13.450;2023-03-26T02:31:30;2.93;;;1.40;;
840;SDS011;406;48.566;13.450;2023-03-26T02:33:57;2.40;;;1.37;;
840;SDS011;406;48.566;13.450;2023-03-26T02:36:26;1.17;;;0.63;;
840;SDS011;406;48.566;13.450;2023-03-26T02:38:57;2.13;;;1.17;;
840;SDS011;406;48.566;13.450;2023-03-26T02:41:27;1.70;;;0.90;;
840;SDS011;406;48.566;13.450;2023-03-26T02:43:58;1.77;;;1.03;;
840;SDS011;406;48.566;13.450;2023-03-26T02:46:44;1.50;;;0.70;;
840;SDS011;406;48.566;13.450;2023-03-26T02:49:29;1.80;;;0.97;;
840;SDS011;406;48.566;13.450;2023-03-26T02:51:56;3.30;;;1.13;;
840;SDS011;406;48.566;13.450;2023-03-26T02:54:26;2.13;;;0.90;;
840;SDS011;406;48.566;13.450;2023-03-26T02:57:11;1.53;;;1.00;;
840;SDS011;406;48.566;13.450;2023-03-26T02:59:47;4.83;;;2.80;;
840;SDS011;406;48.566;13.450;2023-03-26T03:02:33;2.73;;;1.40;;
840;SDS011;406;48.566;13.450;2023-03-26T03:05:22;2.10;;;0.87;;
840;SDS011;406;48.566;13.450;2023-03-26T03:08:06;1.50;;;0.80;;
840;SDS011;406;48.566;13.450;2023-03-26T03:10:36;3.23;;;1.20;;
840;SDS011;406;48.566;13.450;2023-03-26T03:13:16;2.40;;;1.30;;
840;SDS011;406;48.566;13.450;2023-03-26T03:15:43;1.50;;;1.03;;
840;SDS011;406;48.566;13.450;2023-03-26T03:18:10;2.17;;;0.90;;
840;SDS011;406;48.566;13.450;2023-03-26T03:20:36;6.43;;;1.30;;
840;SDS011;406;48.566;13.450;2023-03-26T03:23:03;1.83;;;0.90;;
840;SDS011;406;48.566;13.450;2023-03-26T03:25:30;2.93;;;1.07;;
840;SDS011;406;48.566;13.450;2023-03-26T03:27:58;2.60;;;0.80;;
840;SDS011;406;48.566;13.450;2023-03-26T03:30:25;1.50;;;0.80;;
840;SDS011;406;48.566;13.450;2023-03-26T03:33:21;2.17;;;1.07;;
840;SDS011;406;48.566;13.450;2023-03-26T03:35:48;2.00;;;1.00;;
840;SDS011;406;48.566;13.450;2023-03-26T03:38:16;4.23;;;1.37;;
840;SDS011;406;48.566;13.450;2023-03-26T03:40:46;6.30;;;1.60;;
840;SDS011;406;48.566;13.450;2023-03-26T03:43:14;6.90;;;1.20;;
840;SDS011;406;48.566;13.450;2023-03-26T03:45:53;2.80;;;1.07;;
840;SDS011;406;48.566;13.450;2023-03-26T03:48:34;1.73;;;1.00;;
840;SDS011;406;48.566;13.450;2023-03-26T03:51:05;2.90;;;1.10;;
840;SDS011;406;48.566;13.450;2023-03-26T03:53:44;2.00;;;0.90;;
840;SDS011;406;48.566;13.450;2023-03-26T03:56:15;1.40;;;0.87;;
840;SDS011;406;48.566;13.450;2023-03-26T03:59:04;2.57;;;2.00;;
840;SDS011;406;48.566;13.450;2023-03-26T04:01:33;1.83;;;1.00;;
840;SDS011;406;48.566;13.450;2023-03-26T04:04:05;1.90;;;1.30;;
840;SDS011;406;48.566;13.450;2023-03-26T04:06:58;2.73;;;0.90;;
840;SDS011;406;48.566;13.450;2023-03-26T04:09:32;2.93;;;1.27;;
840;SDS011;406;48.566;13.450;2023-03-26T04:12:03;3.30;;;2.10;;
840;SDS011;406;48.566;13.450;2023-03-26T04:14:38;1.70;;;1.00;;
840;SDS011;406;48.566;13.450;2023-03-26T04:17:13;2.30;;;1.20;;
840;SDS011;406;48.566;13.450;2023-03-26T04:19:42;3.23;;;1.27;;
840;SDS011;406;48.566;13.450;2023-03-26T04:22:11;1.37;;;1.10;;
840;SDS011;406;48.566;13.450;2023-03-26T04:24:51;1.87;;;1.00;;
840;SDS011;406;48.566;13.450;2023-03-26T04:27:20;4.23;;;0.90;;
840;SDS011;406;48.566;13.450;2023-03-26T04:29:50;1.50;;;1.00;;
840;SDS011;406;48.566;13.450;2023-03-26T04:32:22;1.77;;;1.27;;
840;SDS011;406;48.566;13.450;2023-03-26T04:34:53;6.13;;;2.10;;
840;SDS011;406;48.566;13.450;2023-03-26T04:40:15;2.73;;;0.90;;
840;SDS011;406;48.566;13.450;2023-03-26T04:42:57;1.90;;;0.97;;
840;SDS011;406;48.566;13.450;2023-03-26T04:45:57;2.67;;;1.13;;
840;SDS011;406;48.566;13.450;2023-03-26T04:48:32;2.07;;;1.10;;
840;SDS011;406;48.566;13.450;2023-03-26T04:50:59;1.77;;;1.23;;
840;SDS011;406;48.566;13.450;2023-03-26T04:53:26;1.70;;;0.90;;
840;SDS011;406;48.566;13.450;2023-03-26T04:56:15;3.57;;;1.20;;
840;SDS011;406;48.566;13.450;2023-03-26T04:59:04;1.97;;;0.90;;
840;SDS011;406;48.566;13.450;2023-03-26T05:01:36;2.30;;;1.33;;
840;SDS011;406;48.566;13.450;2023-03-26T05:04:04;1.20;;;0.97;;
840;SDS011;406;48.566;13.450;2023-03-26T05:06:31;2.00;;;0.87;;
840;SDS011;406;48.566;13.450;2023-03-26T05:09:05;4.50;;;1.47;;
840;SDS011;406;48.566;13.450;2023-03-26T05:12:06;2.80;;;1.10;;
840;SDS011;406;48.566;13.450;2023-03-26T05:14:43;1.97;;;1.00;;
840;SDS011;406;48.566;13.450;2023-03-26T05:17:15;1.97;;;0.90;;
840;SDS011;406;48.566;13.450;2023-03-26T05:19:45;3.17;;;1.40;;
840;SDS011;406;48.566;13.450;2023-03-26T05:22:12;1.70;;;1.03;;
840;SDS011;406;48.566;13.450;2023-03-26T05:24:57;2.43;;;0.90;;
840;SDS011;406;48.566;13.450;2023-03-26T05:27:24;7.13;;;1.60;;
840;SDS011;406;48.566;13.450;2023-03-26T05:29:50;1.97;;;1.20;;
840;SDS011;406;48.566;13.450;2023-03-26T05:32:17;2.70;;;0.90;;
840;SDS011;406;48.566;13.450;2023-03-26T05:34:45;3.63;;;2.43;;
840;SDS011;406;48.566;13.450;2023-03-26T05:37:12;3.30;;;1.10;;
840;SDS011;406;48.566;13.450;2023-03-26T05:39:59;2.40;;;1.03;;
840;SDS011;406;48.566;13.450;2023-03-26T05:42:44;2.63;;;1.20;;
840;SDS011;406;48.566;13.450;2023-03-26T05:45:25;3.50;;;1.37;;
840;SDS011;406;48.566;13.450;2023-03-26T05:47:53;1.20;;;0.73;;
840;SDS011;406;48.566;13.450;2023-03-26T05:50:23;1.90;;;0.80;;
840;SDS011;406;48.566;13.450;2023-03-26T05:52:53;1.27;;;0.90;;
840;SDS011;406;48.566;13.450;2023-03-26T05:55:25;3.17;;;1.10;;
840;SDS011;406;48.566;13.450;2023-03-26T05:58:28;1.60;;;0.90;;
840;SDS011;406;48.566;13.450;2023-03-26T06:01:15;3.73;;;0.87;;
840;SDS011;406;48.566;13.450;2023-03-26T06:04:02;1.70;;;1.17;;
840;SDS011;406;48.566;13.450;2023-03-26T06:06:34;1.90;;;0.90;;
840;SDS011;406;48.566;13.450;2023-03-26T06:09:00;6.13;;;1.30;;
840;SDS011;406;48.566;13.450;2023-03-26T06:11:29;3.97;;;1.10;;
840;SDS011;406;48.566;13.450;2023-03-26T06:13:57;1.67;;;1.20;;
840;SDS011;406;48.566;13.450;2023-03-26T06:16:24;1.63;;;1.10;;
840;SDS011;406;48.566;13.450;2023-03-26T06:19:01;4.43;;;1.43;;
840;SDS011;406;48.566;13.450;2023-03-26T06:21:49;5.13;;;1.33;;
840;SDS011;406;48.566;13.450;2023-03-26T06:24:20;1.50;;;0.77;;
840;SDS011;406;48.566;13.450;2023-03-26T06:27:05;1.97;;;0.90;;
840;SDS011;406;48.566;13.450;2023-03-26T06:29:58;2.83;;;1.40;;
840;SDS011;406;48.566;13.450;2023-03-26T06:32:36;1.50;;;1.07;;
840;SDS011;406;48.566;13.450;2023-03-26T06:35:06;4.03;;;1.43;;
840;SDS011;406;48.566;13.450;2023-03-26T06:37:33;1.70;;;1.00;;
840;SDS011;406;48.566;13.450;2023-03-26T06:40:01;1.63;;;1.10;;
840;SDS011;406;48.566;13.450;2023-03-26T06:42:54;4.20;;;1.10;;
840;SDS011;406;48.566;13.450;2023-03-26T06:46:04;3.67;;;1.33;;
840;SDS011;406;48.566;13.450;2023-03-26T06:48:37;3.57;;;1.40;;
840;SDS011;406;48.566;13.450;2023-03-26T06:51:36;2.83;;;1.17;;
840;SDS011;406;48.566;13.450;2023-03-26T06:54:25;7.03;;;1.10;;
840;SDS011;406;48.566;13.450;2023-03-26T06:56:56;7.53;;;1.30;;
840;SDS011;406;48.566;13.450;2023-03-26T07:00:00;2.03;;;1.30;;
840;SDS011;406;48.566;13.450;2023-03-26T07:02:45;5.13;;;1.33;;
840;SDS011;406;48.566;13.450;2023-03-26T07:05:47;2.40;;;1.10;;
840;SDS011;406;48.566;13.450;2023-03-26T07:08:52;2.70;;;1.33;;
840;SDS011;406;48.566;13.450;2023-03-26T07:11:38;4.23;;;1.87;;
840;SDS011;406;48.566;13.450;2023-03-26T07:14:40;2.60;;;1.10;;
840;SDS011;406;48.566;13.450;2023-03-26T07:17:20;2.93;;;1.43;;
840;SDS011;406;48.566;13.450;2023-03-26T07:19:59;1.57;;;1.23;;
840;SDS011;406;48.566;13.450;2023-03-26T07:22:26;8.00;;;1.37;;
840;SDS011;406;48.566;13.450;2023-03-26T07:25:11;2.73;;;1.47;;
840;SDS011;406;48.566;13.450;2023-03-26T07:28:11;3.57;;;1.40;;
840;SDS011;406;48.566;13.450;2023-03-26T07:34:31;4.63;;;1.57;;
840;SDS011;406;48.566;13.450;2023-03-26T07:37:31;2.90;;;1.57;;
840;SDS011;406;48.566;13.450;2023-03-26T07:43:32;3.70;;;1.97;;
840;SDS011;406;48.566;13.450;2023-03-26T07:46:08;3.57;;;1.60;;
840;SDS011;406;48.566;13.450;2023-03-26T07:49:00;4.70;;;1.53;;
840;SDS011;406;48.566;13.450;2023-03-26T07:51:39;4.67;;;1.63;;
840;SDS011;406;48.566;13.450;2023-03-26T07:54:32;7.10;;;2.17;;
840;SDS011;406;48.566;13.450;2023-03-26T07:57:21;5.43;;;2.03;;
840;SDS011;406;48.566;13.450;2023-03-26T08:00:16;7.30;;;2.30;;
840;SDS011;406;48.566;13.450;2023-03-26T08:06:28;4.33;;;1.37;;
840;SDS011;406;48.566;13.450;2023-03-26T08:15:24;2.43;;;1.40;;
840;SDS011;406;48.566;13.450;2023-03-26T08:20:39;1.70;;;1.20;;
840;SDS011;406;48.566;13.450;2023-03-26T08:23:18;4.33;;;1.57;;
840;SDS011;406;48.566;13.450;2023-03-26T08:28:34;2.97;;;1.30;;
840;SDS011;406;48.566;13.450;2023-03-26T08:31:25;5.07;;;1.37;;
840;SDS011;406;48.566;13.450;2023-03-26T08:33:54;5.20;;;1.53;;
840;SDS011;406;48.566;13.450;2023-03-26T08:36:20;5.43;;;2.70;;
840;SDS011;406;48.566;13.450;2023-03-26T08:38:47;3.60;;;1.20;;
840;SDS011;406;48.566;13.450;2023-03-26T08:41:21;3.03;;;1.37;;
840;SDS011;406;48.566;13.450;2023-03-26T08:55:05;2.63;;;1.90;;
840;SDS011;406;48.566;13.450;2023-03-26T09:00:51;5.40;;;2.23;;
840;SDS011;406;48.566;13.450;2023-03-26T09:20:36;10.60;;;3.43;;
840;SDS011;406;48.566;13.450;2023-03-26T09:23:14;5.73;;;1.47;;
840;SDS011;406;48.566;13.450;2023-03-26T09:33:58;6.27;;;1.43;;
840;SDS011;406;48.566;13.450;2023-03-26T09:39:11;3.20;;;1.63;;
840;SDS011;406;48.566;13.450;2023-03-26T09:41:48;2.27;;;1.20;;
840;SDS011;406;48.566;13.450;2023-03-26T09:52:49;5.33;;;1.40;;
840;SDS011;406;48.566;13.450;2023-03-26T09:56:01;5.00;;;1.10;;
840;SDS011;406;48.566;13.450;2023-03-26T09:58:54;3.03;;;1.00;;
840;SDS011;406;48.566;13.450;2023-03-26T10:04:41;4.50;;;1.10;;
840;SDS011;406;48.566;13.450;2023-03-26T10:13:16;3.10;;;1.23;;
840;SDS011;406;48.566;13.450;2023-03-26T10:16:11;6.47;;;2.27;;
840;SDS011;406;48.566;13.450;2023-03-26T10:21:46;5.20;;;1.27;;
840;SDS011;406;48.566;13.450;2023-03-26T10:24:27;1.60;;;1.20;;
840;SDS011;406;48.566;13.450;2023-03-26T10:27:22;4.80;;;1.20;;
840;SDS011;406;48.566;13.450;2023-03-26T10:30:15;4.53;;;1.43;;
840;SDS011;406;48.566;13.450;2023-03-26T10:35:35;3.60;;;1.07;;
840;SDS011;406;48.566;13.450;2023-03-26T10:38:15;7.13;;;1.00;;
840;SDS011;406;48.566;13.450;2023-03-26T10:52:07;3.70;;;1.57;;
840;SDS011;406;48.566;13.450;2023-03-26T10:54:47;3.40;;;1.07;;
840;SDS011;406;48.566;13.450;2023-03-26T10:57:28;8.73;;;1.60;;
840;SDS011;406;48.566;13.450;2023-03-26T11:00:11;4.53;;;1.47;;
840;SDS011;406;48.566;13.450;2023-03-26T11:05:50;3.40;;;0.90;;
840;SDS011;406;48.566;13.450;2023-03-26T11:08:45;6.90;;;2.00;;
840;SDS011;406;48.566;13.450;2023-03-26T11:11:20;9.67;;;2.00;;
840;SDS011;406;48.566;13.450;2023-03-26T11:14:02;4.13;;;1.20;;
840;SDS011;406;48.566;13.450;2023-03-26T11:33:47;1.83;;;0.80;;
840;SDS011;406;48.566;13.450;2023-03-26T11:36:20;6.33;;;1.23;;
840;SDS011;406;48.566;13.450;2023-03-26T11:38:50;4.93;;;1.30;;
840;SDS011;406;48.566;13.450;2023-03-26T11:41:25;4.33;;;1.53;;
840;SDS011;406;48.566;13.450;2023-03-26T11:44:20;5.93;;;2.40;;
840;SDS011;406;48.566;13.450;2023-03-26T11:46:51;3.00;;;1.07;;
840;SDS011;406;48.566;13.450;2023-03-26T11:49:19;3.00;;;1.33;;
840;SDS011;406;48.566;13.450;2023-03-26T11:51:47;2.10;;;0.90;;
840;SDS011;406;48.566;13.450;2023-03-26T11:54:13;4.50;;;1.40;;
840;SDS011;406;48.566;13.450;2023-03-26T12:02:27;4.87;;;1.50;;
840;SDS011;406;48.566;13.450;2023-03-26T12:05:18;2.37;;;1.17;;
840;SDS011;406;48.566;13.450;2023-03-26T12:07:57;4.70;;;1.13;;
840;SDS011;406;48.566;13.450;2023-03-26T12:10:26;4.13;;;1.20;;
840;SDS011;406;48.566;13.450;2023-03-26T12:13:22;1.57;;;1.20;;
840;SDS011;406;48.566;13.450;2023-03-26T12:15:57;2.60;;;1.07;;
840;SDS011;406;48.566;13.450;2023-03-26T12:18:25;2.70;;;1.43;;
840;SDS011;406;48.566;13.450;2023-03-26T12:21:13;2.83;;;1.60;;
840;SDS011;406;48.566;13.450;2023-03-26T12:29:08;4.50;;;1.70;;
840;SDS011;406;48.566;13.450;2023-03-26T12:34:30;2.93;;;1.60;;
840;SDS011;406;48.566;13.450;2023-03-26T12:37:01;5.13;;;1.57;;
840;SDS011;406;48.566;13.450;2023-03-26T12:42:29;6.57;;;1.50;;
840;SDS011;406;48.566;13.450;2023-03-26T12:45:22;3.57;;;1.40;;
840;SDS011;406;48.566;13.450;2023-03-26T12:47:53;1.80;;;1.10;;
840;SDS011;406;48.566;13.450;2023-03-26T12:50:35;3.03;;;1.40;;
840;SDS011;406;48.566;13.450;2023-03-26T12:58:52;2.73;;;1.77;;
840;SDS011;406;48.566;13.450;2023-03-26T13:01:43;2.60;;;1.30;;
840;SDS011;406;48.566;13.450;2023-03-26T13:07:02;2.93;;;1.43;;
840;SDS011;406;48.566;13.450;2023-03-26T13:12:42;6.10;;;1.30;;
840;SDS011;406;48.566;13.450;2023-03-26T13:15:16;2.77;;;1.20;;
840;SDS011;406;48.566;13.450;2023-03-26T13:23:58;2.43;;;1.27;;
840;SDS011;406;48.566;13.450;2023-03-26T13:29:32;2.90;;;1.27;;
840;SDS011;406;48.566;13.450;2023-03-26T13:32:14;1.87;;;0.83;;
840;SDS011;406;48.566;13.450;2023-03-26T13:34:58;2.10;;;1.00;;
840;SDS011;406;48.566;13.450;2023-03-26T13:37:37;3.63;;;0.93;;
840;SDS011;406;48.566;13.450;2023-03-26T13:48:14;1.83;;;1.10;;
840;SDS011;406;48.566;13.450;2023-03-26T13:50:43;2.40;;;0.90;;
840;SDS011;406;48.566;13.450;2023-03-26T13:53:20;1.50;;;1.00;;
840;SDS011;406;48.566;13.450;2023-03-26T13:55:50;2.10;;;1.23;;
840;SDS011;406;48.566;13.450;2023-03-26T13:58:23;1.10;;;0.80;;
840;SDS011;406;48.566;13.450;2023-03-26T14:01:04;2.23;;;1.00;;
840;SDS011;406;48.566;13.450;2023-03-26T14:09:35;6.20;;;1.90;;
840;SDS011;406;48.566;13.450;2023-03-26T14:14:48;2.87;;;1.20;;
840;SDS011;406;48.566;13.450;2023-03-26T14:17:24;3.87;;;1.40;;
840;SDS011;406;48.566;13.450;2023-03-26T14:22:39;1.80;;;1.07;;
840;SDS011;406;48.566;13.450;2023-03-26T14:31:01;1.80;;;0.97;;
840;SDS011;406;48.566;13.450;2023-03-26T14:36:18;2.87;;;1.87;;
840;SDS011;406;48.566;13.450;2023-03-26T14:47:20;1.40;;;0.93;;
840;SDS011;406;48.566;13.450;2023-03-26T14:53:12;1.60;;;1.10;;
840;SDS011;406;48.566;13.450;2023-03-26T14:55:50;1.70;;;1.10;;
840;SDS011;406;48.566;13.450;2023-03-26T15:06:40;2.37;;;1.03;;
840;SDS011;406;48.566;13.450;2023-03-26T15:09:55;2.00;;;1.10;;
840;SDS011;406;48.566;13.450;2023-03-26T15:18:41;1.00;;;0.77;;
840;SDS011;406;48.566;13.450;2023-03-26T15:38:12;1.43;;;0.83;;
840;SDS011;406;48.566;13.450;2023-03-26T15:49:49;1.80;;;0.97;;
840;SDS011;406;48.566;13.450;2023-03-26T15:54:54;1.60;;;0.80;;
840;SDS011;406;48.566;13.450;2023-03-26T16:00:22;1.43;;;1.00;;
840;SDS011;406;48.566;13.450;2023-03-26T16:05:48;1.53;;;0.90;;
840;SDS011;406;48.566;13.450;2023-03-26T16:08:27;1.60;;;0.70;;
840;SDS011;406;48.566;13.450;2023-03-26T16:10:56;2.17;;;0.73;;
840;SDS011;406;48.566;13.450;2023-03-26T16:15:54;2.50;;;1.17;;
840;SDS011;406;48.566;13.450;2023-03-26T16:34:39;0.93;;;0.57;;
840;SDS011;406;48.566;13.450;2023-03-26T16:57:00;7.40;;;1.57;;
840;SDS011;406;48.566;13.450;2023-03-26T17:02:34;3.40;;;0.50;;
840;SDS011;406;48.566;13.450;2023-03-26T17:08:13;0.80;;;0.60;;
840;SDS011;406;48.566;13.450;2023-03-26T17:11:13;2.20;;;0.90;;
840;SDS011;406;48.566;13.450;2023-03-26T17:18:59;2.03;;;1.20;;
840;SDS011;406;48.566;13.450;2023-03-26T17:21:53;1.03;;;0.50;;
840;SDS011;406;48.566;13.450;2023-03-26T17:25:10;2.47;;;1.13;;
840;SDS011;406;48.566;13.450;2023-03-26T17:41:05;1.00;;;0.50;;
840;SDS011;406;48.566;13.450;2023-03-26T17:46:11;1.13;;;0.73;;
840;SDS011;406;48.566;13.450;2023-03-26T17:48:44;2.30;;;1.20;;
840;SDS011;406;48.566;13.450;2023-03-26T17:53:43;1.50;;;0.93;;
840;SDS011;406;48.566;13.450;2023-03-26T17:56:12;1.07;;;0.70;;
840;SDS011;406;48.566;13.450;2023-03-26T17:58:42;3.20;;;0.80;;
840;SDS011;406;48.566;13.450;2023-03-26T18:01:20;1.07;;;0.77;;
840;SDS011;406;48.566;13.450;2023-03-26T18:03:49;1.93;;;0.80;;
840;SDS011;406;48.566;13.450;2023-03-26T18:17:15;1.33;;;0.43;;
840;SDS011;406;48.566;13.450;2023-03-26T18:19:46;1.33;;;0.80;;
840;SDS011;406;48.566;13.450;2023-03-26T18:22:29;1.27;;;0.50;;
840;SDS011;406;48.566;13.450;2023-03-26T18:24:57;0.97;;;0.70;;
840;SDS011;406;48.566;13.450;2023-03-26T18:27:25;3.37;;;1.30;;
840;SDS011;406;48.566;13.450;2023-03-26T18:30:01;1.93;;;0.83;;
840;SDS011;406;48.566;13.450;2023-03-26T18:32:34;1.90;;;0.80;;
840;SDS011;406;48.566;13.450;2023-03-26T18:35:16;1.43;;;0.77;;
840;SDS011;406;48.566;13.450;2023-03-26T18:37:45;4.20;;;0.90;;
840;SDS011;406;48.566;13.450;2023-03-26T18:40:21;0.83;;;0.60;;
840;SDS011;406;48.566;13.450;2023-03-26T18:42:50;0.80;;;0.67;;
840;SDS011;406;48.566;13.450;2023-03-26T18:47:58;1.93;;;0.90;;
840;SDS011;406;48.566;13.450;2023-03-26T18:50:27;1.67;;;0.70;;
840;SDS011;406;48.566;13.450;2023-03-26T18:52:57;0.97;;;0.77;;
840;SDS011;406;48.566;13.450;2023-03-26T18:55:25;2.70;;;0.83;;
840;SDS011;406;48.566;13.450;2023-03-26T18:57:53;1.67;;;1.00;;
840;SDS011;406;48.566;13.450;2023-03-26T19:00:20;1.40;;;0.90;;
840;SDS011;406;48.566;13.450;2023-03-26T19:03:04;2.13;;;0.97;;
840;SDS011;406;48.566;13.450;2023-03-26T19:05:32;2.13;;;1.03;;
840;SDS011;406;48.566;13.450;2023-03-26T19:08:00;1.70;;;0.93;;
840;SDS011;406;48.566;13.450;2023-03-26T19:10:31;3.60;;;0.80;;
840;SDS011;406;48.566;13.450;2023-03-26T19:13:01;2.40;;;1.00;;
840;SDS011;406;48.566;13.450;2023-03-26T19:15:29;1.80;;;1.10;;
840;SDS011;406;48.566;13.450;2023-03-26T19:17:59;1.20;;;0.70;;
840;SDS011;406;48.566;13.450;2023-03-26T19:20:43;1.80;;;0.77;;
840;SDS011;406;48.566;13.450;2023-03-26T19:23:15;2.00;;;1.47;;
840;SDS011;406;48.566;13.450;2023-03-26T19:25:44;3.10;;;1.23;;
840;SDS011;406;48.566;13.450;2023-03-26T19:30:44;2.30;;;1.07;;
840;SDS011;406;48.566;13.450;2023-03-26T19:33:15;1.83;;;1.23;;
840;SDS011;406;48.566;13.450;2023-03-26T19:35:44;2.33;;;1.07;;
840;SDS011;406;48.566;13.450;2023-03-26T19:41:03;2.17;;;1.00;;
840;SDS011;406;48.566;13.450;2023-03-26T19:43:30;2.30;;;1.10;;
840;SDS011;406;48.566;13.450;2023-03-26T19:45:56;2.90;;;1.03;;
840;SDS011;406;48.566;13.450;2023-03-26T19:48:27;1.50;;;1.10;;
840;SDS011;406;48.566;13.450;2023-03-26T19:51:16;1.63;;;0.97;;
840;SDS011;406;48.566;13.450;2023-03-26T19:53:46;1.00;;;0.70;;
840;SDS011;406;48.566;13.450;2023-03-26T19:56:17;2.23;;;1.20;;
840;SDS011;406;48.566;13.450;2023-03-26T19:58:44;2.20;;;1.13;;
840;SDS011;406;48.566;13.450;2023-03-26T20:01:17;1.73;;;1.30;;
840;SDS011;406;48.566;13.450;2023-03-26T20:03:46;2.50;;;1.73;;
840;SDS011;406;48.566;13.450;2023-03-26T20:06:18;3.20;;;1.60;;
840;SDS011;406;48.566;13.450;2023-03-26T20:08:53;2.00;;;1.17;;
840;SDS011;406;48.566;13.450;2023-03-26T20:11:20;1.40;;;0.90;;
840;SDS011;406;48.566;13.450;2023-03-26T20:13:48;1.30;;;1.20;;
840;SDS011;406;48.566;13.450;2023-03-26T20:16:25;1.97;;;1.43;;
840;SDS011;406;48.566;13.450;2023-03-26T20:18:56;3.30;;;1.30;;
840;SDS011;406;48.566;13.450;2023-03-26T20:21:30;1.70;;;1.23;;
840;SDS011;406;48.566;13.450;2023-03-26T20:23:57;3.10;;;1.80;;
840;SDS011;406;48.566;13.450;2023-03-26T20:26:24;3.60;;;1.50;;
840;SDS011;406;48.566;13.450;2023-03-26T20:28:50;3.20;;;1.50;;
840;SDS011;406;48.566;13.450;2023-03-26T20:31:20;2.87;;;1.80;;
840;SDS011;406;48.566;13.450;2023-03-26T20:33:48;3.20;;;1.80;;
840;SDS011;406;48.566;13.450;2023-03-26T20:36:15;4.10;;;1.60;;
840;SDS011;406;48.566;13.450;2023-03-26T20:39:00;2.67;;;1.50;;
840;SDS011;406;48.566;13.450;2023-03-26T20:41:30;2.43;;;1.57;;
840;SDS011;406;48.566;13.450;2023-03-26T20:43:57;2.93;;;1.73;;
840;SDS011;406;48.566;13.450;2023-03-26T20:46:24;5.00;;;2.00;;
840;SDS011;406;48.566;13.450;2023-03-26T20:48:57;3.37;;;1.50;;
840;SDS011;406;48.566;13.450;2023-03-26T20:51:24;3.07;;;2.20;;
840;SDS011;406;48.566;13.450;2023-03-26T20:53:53;2.20;;;1.60;;
840;SDS011;406;48.566;13.450;2023-03-26T20:56:19;3.97;;;1.93;;
840;SDS011;406;48.566;13.450;2023-03-26T20:58:46;3.53;;;2.00;;
840;SDS011;406;48.566;13.450;2023-03-26T21:01:36;2.97;;;1.50;;
840;SDS011;406;48.566;13.450;2023-03-26T21:04:03;2.10;;;1.80;;
840;SDS011;406;48.566;13.450;2023-03-26T21:06:30;2.83;;;1.93;;
840;SDS011;406;48.566;13.450;2023-03-26T21:08:57;4.00;;;1.80;;
840;SDS011;406;48.566;13.450;2023-03-26T21:14:19;3.00;;;1.20;;
840;SDS011;406;48.566;13.450;2023-03-26T21:16:47;1.27;;;1.00;;
840;SDS011;406;48.566;13.450;2023-03-26T21:19:14;1.83;;;0.90;;
840;SDS011;406;48.566;13.450;2023-03-26T21:21:46;2.87;;;1.10;;
840;SDS011;406;48.566;13.450;2023-03-26T21:29:35;0.83;;;0.40;;
840;SDS011;406;48.566;13.450;2023-03-26T21:32:02;1.57;;;0.50;;
840;SDS011;406;48.566;13.450;2023-03-26T21:34:30;0.93;;;0.47;;
840;SDS011;406;48.566;13.450;2023-03-26T21:36:59;1.23;;;0.60;;
840;SDS011;406;48.566;13.450;2023-03-26T21:39:26;0.70;;;0.40;;
840;SDS011;406;48.566;13.450;2023-03-26T21:41:54;1.20;;;0.50;;
840;SDS011;406;48.566;13.450;2023-03-26T21:44:30;0.77;;;0.40;;
840;SDS011;406;48.566;13.450;2023-03-26T21:46:57;1.03;;;0.57;;
840;SDS011;406;48.566;13.450;2023-03-26T21:49:24;0.77;;;0.33;;
840;SDS011;406;48.566;13.450;2023-03-26T21:51:51;0.70;;;0.40;;
840;SDS011;406;48.566;13.450;2023-03-26T21:54:30;1.20;;;0.40;;
840;SDS011;406;48.566;13.450;2023-03-26T21:57:07;0.60;;;0.30;;
840;SDS011;406;48.566;13.450;2023-03-26T22:05:39;1.10;;;0.50;;
840;SDS011;406;48.566;13.450;2023-03-26T22:08:15;0.60;;;0.20;;
840;SDS011;406;48.566;13.450;2023-03-26T22:10:47;0.50;;;0.30;;